Forside
METAR-TAF:

METAR-TAF

Lufthavne :

Ottawa, Ontario, Canada

Breddekreds: 45-19N, længdekreds: 075-40W, højde: 116 m

Aktuelle vejr

Denne rapport blev lavet for 41 minutter siden, kl. 10:00 UTC
Vind 5 kt fra sydvest
Temperatur 5°C
Fugtighed 100%
Tryk 1024 hPa
Sigt: 24.1 km
Nogle få skyer i en højde af 12000 ft

METAR: CYOW 231000Z 23005KT 15SM FEW120 05/05 A3023 RMK AC1 SLP241

Tid: 06:41 (10:41 UTC)

Vejrudsigter

Denne rapport blev lavet for 2 timer og 3 minutter siden, kl. 08:38 UTC
Foreløbig gælder fra 23 på 09 UTC til 24 på 06 UTC
Vind 3 kt fra varierende retninger
Sigt: 10 km
Nogle få skyer i en højde af 24000 ft
Fra 23 på 1400 UTC
Vind 6 kt fra nordvest
Sigt: 10 km
Brudte skyer i en højde af 4000 ft
ændring
fra 23 på 20 UTC til 23 på 22 UTC
Vind 10 kt fra nord

TAF: CYOW 230838Z 2309/2406 VRB03KT P6SM FEW240 FM231400 31006KT P6SM BKN040 BECMG 2320/2322 01010KT RMK NXT FCST BY 231200Z

Vejrobservationer og prognoser fra mere end 4000 lufthavne (METAR og TAF).

De gule og røde prikker repræsenterer de meteorologiske stationer.

Flyt musen over at se navnet på stationen.

Så klik over at se vejr observationer og prognoser.

At skifte det kort: Klik på de grønne knapper med et sort kors for at zoome ind; på den grønne knap med en bindestreg for at zoome ud; eller på de grønne pile for tilstødende kort.


METAR-TAF: